Excellent Pescadores — HORK — position and weather

sailwx.info

Track history (hours):
 
Tides and Currents Weather Stations Pressure Air Temp Water Temp Dewpoint Dewpoint Depression Visibility Wind Speed Wind Dir Waves Ship Positions

Excellent Pescadores

Last reported at 2017-Jun-21 19:14 UTC. Time now 2017-Jun-22 20:50 UTC.
Position N 31°04' E 122°07'.

Length 148 m; draft 5.3 m.

Type: Cargo ship. MMSI: 356291000.

Date/timePositionNaut miles runAvg speedWind from/ knotsBaromVisibWave heightAir tempDewpointWater temp
2017-Jun-21 19:14N 31°04' E 122°07'312.8
2017-Jun-21 19:00N 31°04' E 122°03'611.6
2017-Jun-21 18:30N 31°06' E 121°57'714.2
2017-Jun-21 18:00N 31°11' E 121°51'714.0
2017-Jun-21 17:31N 31°16' E 121°45'612.5
2017-Jun-21 17:00N 31°21' E 121°40'611.2
2017-Jun-21 16:30N 31°23' E 121°34'4 8.8
2017-Jun-21 16:00N 31°26' E 121°30'4 7.2
2017-Jun-21 15:31N 31°28' E 121°27'510.1
2017-Jun-21 15:00N 31°31' E 121°22'5 9.9
2017-Jun-21 14:31N 31°35' E 121°18'1010.1
2017-Jun-21 13:30N 31°42' E 121°09'  
2017-Jun-15 23:40N 31°41' E 121°10'310.6
2017-Jun-15 23:24N 31°40' E 121°13'410.7
2017-Jun-15 23:00N 31°37' E 121°16'511.1
2017-Jun-15 22:30N 31°33' E 121°20'611.1
2017-Jun-15 22:00N 31°30' E 121°26'611.3
2017-Jun-15 21:30N 31°26' E 121°30'611.1
2017-Jun-15 21:00N 31°23' E 121°36'510.2
2017-Jun-15 20:30N 31°20' E 121°41'611.9
2017-Jun-15 20:00N 31°16' E 121°46'713.1
2017-Jun-15 19:30N 31°11' E 121°51'611.8
2017-Jun-15 19:00N 31°07' E 121°56'610.3
2017-Jun-15 18:27N 31°05' E 122°02'  
Track history (hours):
 
Tides and Currents Weather Stations Pressure Air Temp Water Temp Dewpoint Dewpoint Depression Visibility Wind Speed Wind Dir Waves Ship Positions

Excellent Pescadores

Last reported at 2017-Jun-21 19:14 UTC. Time now 2017-Jun-22 20:50 UTC.
Position N 31°04' E 122°07'.

Length 148 m; draft 5.3 m.

Type: Cargo ship. MMSI: 356291000.

Date/timePositionNaut miles runAvg speedWind from/ knotsBaromVisibWave heightAir tempDewpointWater temp
2017-Jun-21 19:14N 31°04' E 122°07'312.8
2017-Jun-21 19:00N 31°04' E 122°03'611.6
2017-Jun-21 18:30N 31°06' E 121°57'714.2
2017-Jun-21 18:00N 31°11' E 121°51'714.0
2017-Jun-21 17:31N 31°16' E 121°45'612.5
2017-Jun-21 17:00N 31°21' E 121°40'611.2
2017-Jun-21 16:30N 31°23' E 121°34'4 8.8
2017-Jun-21 16:00N 31°26' E 121°30'4 7.2
2017-Jun-21 15:31N 31°28' E 121°27'510.1
2017-Jun-21 15:00N 31°31' E 121°22'5 9.9
2017-Jun-21 14:31N 31°35' E 121°18'1010.1
2017-Jun-21 13:30N 31°42' E 121°09'  
2017-Jun-15 23:40N 31°41' E 121°10'310.6
2017-Jun-15 23:24N 31°40' E 121°13'410.7
2017-Jun-15 23:00N 31°37' E 121°16'511.1
2017-Jun-15 22:30N 31°33' E 121°20'611.1
2017-Jun-15 22:00N 31°30' E 121°26'611.3
2017-Jun-15 21:30N 31°26' E 121°30'611.1
2017-Jun-15 21:00N 31°23' E 121°36'510.2
2017-Jun-15 20:30N 31°20' E 121°41'611.9
2017-Jun-15 20:00N 31°16' E 121°46'713.1
2017-Jun-15 19:30N 31°11' E 121°51'611.8
2017-Jun-15 19:00N 31°07' E 121°56'610.3
2017-Jun-15 18:27N 31°05' E 122°02'  

Dump ship's entire track history